sensor_id;sensor_type;location;lat;lon;timestamp;temperature;humidity
41220;DHT22;26951;47.338;9.196;2023-05-24T00:02:30;13.60;67.70
41220;DHT22;26951;47.338;9.196;2023-05-24T00:05:14;13.50;67.60
41220;DHT22;26951;47.338;9.196;2023-05-24T00:07:59;13.50;67.60
41220;DHT22;26951;47.338;9.196;2023-05-24T00:10:43;13.50;67.60
41220;DHT22;26951;47.338;9.196;2023-05-24T00:13:27;13.50;67.70
41220;DHT22;26951;47.338;9.196;2023-05-24T00:16:12;13.50;68.00
41220;DHT22;26951;47.338;9.196;2023-05-24T00:18:56;13.50;68.00
41220;DHT22;26951;47.338;9.196;2023-05-24T00:21:41;13.50;68.20
41220;DHT22;26951;47.338;9.196;2023-05-24T00:24:25;13.50;68.60
41220;DHT22;26951;47.338;9.196;2023-05-24T00:27:10;13.50;68.60
41220;DHT22;26951;47.338;9.196;2023-05-24T00:29:55;13.50;68.20
41220;DHT22;26951;47.338;9.196;2023-05-24T00:32:39;13.40;68.30
41220;DHT22;26951;47.338;9.196;2023-05-24T00:35:24;13.40;68.50
41220;DHT22;26951;47.338;9.196;2023-05-24T00:38:08;13.40;68.70
41220;DHT22;26951;47.338;9.196;2023-05-24T00:40:53;13.40;68.90
41220;DHT22;26951;47.338;9.196;2023-05-24T00:43:40;13.40;68.90
41220;DHT22;26951;47.338;9.196;2023-05-24T00:46:29;13.40;68.60
41220;DHT22;26951;47.338;9.196;2023-05-24T00:49:13;13.30;68.70
41220;DHT22;26951;47.338;9.196;2023-05-24T00:51:57;13.40;68.70
41220;DHT22;26951;47.338;9.196;2023-05-24T00:54:42;13.30;68.70
41220;DHT22;26951;47.338;9.196;2023-05-24T00:57:26;13.30;68.90
41220;DHT22;26951;47.338;9.196;2023-05-24T01:00:11;13.30;69.00
41220;DHT22;26951;47.338;9.196;2023-05-24T01:03:00;13.30;69.10
41220;DHT22;26951;47.338;9.196;2023-05-24T01:05:45;13.30;69.10
41220;DHT22;26951;47.338;9.196;2023-05-24T01:14:47;13.20;69.40
41220;DHT22;26951;47.338;9.196;2023-05-24T01:18:10;13.20;69.40
41220;DHT22;26951;47.338;9.196;2023-05-24T01:24:17;13.10;69.40
41220;DHT22;26951;47.338;9.196;2023-05-24T01:27:06;13.10;69.80
41220;DHT22;26951;47.338;9.196;2023-05-24T01:29:51;13.10;69.90
41220;DHT22;26951;47.338;9.196;2023-05-24T01:32:39;13.10;70.10
41220;DHT22;26951;47.338;9.196;2023-05-24T01:35:23;12.90;71.10
41220;DHT22;26951;47.338;9.196;2023-05-24T01:38:07;12.80;71.20
41220;DHT22;26951;47.338;9.196;2023-05-24T01:41:00;12.80;71.20
41220;DHT22;26951;47.338;9.196;2023-05-24T01:43:54;12.80;71.20
41220;DHT22;26951;47.338;9.196;2023-05-24T01:46:38;12.80;71.10
41220;DHT22;26951;47.338;9.196;2023-05-24T01:49:26;12.80;71.00
41220;DHT22;26951;47.338;9.196;2023-05-24T01:52:15;12.80;71.10
41220;DHT22;26951;47.338;9.196;2023-05-24T01:55:00;12.80;71.40
41220;DHT22;26951;47.338;9.196;2023-05-24T01:57:47;12.90;71.50
41220;DHT22;26951;47.338;9.196;2023-05-24T02:00:34;12.90;71.40
41220;DHT22;26951;47.338;9.196;2023-05-24T02:03:18;12.90;71.40
41220;DHT22;26951;47.338;9.196;2023-05-24T02:06:03;12.90;71.10
41220;DHT22;26951;47.338;9.196;2023-05-24T02:08:47;12.80;71.00
41220;DHT22;26951;47.338;9.196;2023-05-24T02:11:31;12.90;71.20
41220;DHT22;26951;47.338;9.196;2023-05-24T02:14:15;12.90;71.30
41220;DHT22;26951;47.338;9.196;2023-05-24T02:17:03;12.90;71.20
41220;DHT22;26951;47.338;9.196;2023-05-24T02:19:48;12.90;71.50
41220;DHT22;26951;47.338;9.196;2023-05-24T02:22:32;12.90;71.20
41220;DHT22;26951;47.338;9.196;2023-05-24T02:25:16;12.90;71.30
41220;DHT22;26951;47.338;9.196;2023-05-24T02:28:01;12.90;71.40
41220;DHT22;26951;47.338;9.196;2023-05-24T02:30:45;12.90;71.30
41220;DHT22;26951;47.338;9.196;2023-05-24T02:33:29;12.90;71.40
41220;DHT22;26951;47.338;9.196;2023-05-24T02:36:13;12.90;71.20
41220;DHT22;26951;47.338;9.196;2023-05-24T02:38:57;12.90;71.40
41220;DHT22;26951;47.338;9.196;2023-05-24T02:41:41;12.90;71.40
41220;DHT22;26951;47.338;9.196;2023-05-24T02:44:25;12.80;71.40
41220;DHT22;26951;47.338;9.196;2023-05-24T02:47:09;12.80;71.70
41220;DHT22;26951;47.338;9.196;2023-05-24T02:49:54;12.80;71.90
41220;DHT22;26951;47.338;9.196;2023-05-24T02:52:38;12.80;71.70
41220;DHT22;26951;47.338;9.196;2023-05-24T02:55:22;12.80;71.70
41220;DHT22;26951;47.338;9.196;2023-05-24T02:58:06;12.80;71.90
41220;DHT22;26951;47.338;9.196;2023-05-24T03:00:51;12.80;72.00
41220;DHT22;26951;47.338;9.196;2023-05-24T03:03:35;12.80;71.90
41220;DHT22;26951;47.338;9.196;2023-05-24T03:06:19;12.80;72.30
41220;DHT22;26951;47.338;9.196;2023-05-24T03:09:03;12.80;72.40
41220;DHT22;26951;47.338;9.196;2023-05-24T03:11:48;12.70;72.60
41220;DHT22;26951;47.338;9.196;2023-05-24T03:14:32;12.70;72.40
41220;DHT22;26951;47.338;9.196;2023-05-24T03:17:16;12.70;72.60
41220;DHT22;26951;47.338;9.196;2023-05-24T03:20:01;12.70;72.60
41220;DHT22;26951;47.338;9.196;2023-05-24T03:22:45;12.70;72.40
41220;DHT22;26951;47.338;9.196;2023-05-24T03:25:29;12.70;72.60
41220;DHT22;26951;47.338;9.196;2023-05-24T03:28:13;12.70;72.50
41220;DHT22;26951;47.338;9.196;2023-05-24T03:30:58;12.70;72.40
41220;DHT22;26951;47.338;9.196;2023-05-24T03:33:42;12.80;72.20
41220;DHT22;26951;47.338;9.196;2023-05-24T03:36:26;12.80;72.10
41220;DHT22;26951;47.338;9.196;2023-05-24T03:39:12;12.70;71.70
41220;DHT22;26951;47.338;9.196;2023-05-24T03:41:56;12.70;71.30
41220;DHT22;26951;47.338;9.196;2023-05-24T03:44:40;12.70;71.30
41220;DHT22;26951;47.338;9.196;2023-05-24T03:47:25;12.70;71.70
41220;DHT22;26951;47.338;9.196;2023-05-24T03:50:09;12.70;71.30
41220;DHT22;26951;47.338;9.196;2023-05-24T03:52:54;12.60;71.30
41220;DHT22;26951;47.338;9.196;2023-05-24T03:55:38;12.60;71.30
41220;DHT22;26951;47.338;9.196;2023-05-24T03:58:22;12.60;71.30
41220;DHT22;26951;47.338;9.196;2023-05-24T04:01:06;12.60;71.20
41220;DHT22;26951;47.338;9.196;2023-05-24T04:03:51;12.50;71.10
41220;DHT22;26951;47.338;9.196;2023-05-24T04:06:39;12.50;71.40
41220;DHT22;26951;47.338;9.196;2023-05-24T04:09:24;12.40;71.20
41220;DHT22;26951;47.338;9.196;2023-05-24T04:12:08;12.40;71.50
41220;DHT22;26951;47.338;9.196;2023-05-24T04:14:54;12.40;71.60
41220;DHT22;26951;47.338;9.196;2023-05-24T04:17:39;12.40;71.50
41220;DHT22;26951;47.338;9.196;2023-05-24T04:20:23;12.40;71.50
41220;DHT22;26951;47.338;9.196;2023-05-24T04:23:08;12.30;71.30
41220;DHT22;26951;47.338;9.196;2023-05-24T04:25:52;12.30;71.20
41220;DHT22;26951;47.338;9.196;2023-05-24T04:28:36;12.30;71.10
41220;DHT22;26951;47.338;9.196;2023-05-24T04:31:21;12.30;70.80
41220;DHT22;26951;47.338;9.196;2023-05-24T04:34:05;12.20;71.30
41220;DHT22;26951;47.338;9.196;2023-05-24T04:36:50;12.10;71.40
41220;DHT22;26951;47.338;9.196;2023-05-24T04:39:36;12.10;71.70
41220;DHT22;26951;47.338;9.196;2023-05-24T04:42:20;12.10;71.70
41220;DHT22;26951;47.338;9.196;2023-05-24T04:45:05;12.00;72.00
41220;DHT22;26951;47.338;9.196;2023-05-24T04:47:50;12.00;71.90
41220;DHT22;26951;47.338;9.196;2023-05-24T04:50:34;12.00;71.60
41220;DHT22;26951;47.338;9.196;2023-05-24T04:53:20;11.90;71.90
41220;DHT22;26951;47.338;9.196;2023-05-24T04:56:04;11.90;72.40
41220;DHT22;26951;47.338;9.196;2023-05-24T04:58:48;11.90;72.70
41220;DHT22;26951;47.338;9.196;2023-05-24T05:01:33;11.80;73.30
41220;DHT22;26951;47.338;9.196;2023-05-24T05:04:17;11.80;72.70
41220;DHT22;26951;47.338;9.196;2023-05-24T05:07:01;11.80;73.30
41220;DHT22;26951;47.338;9.196;2023-05-24T05:09:46;11.70;73.20
41220;DHT22;26951;47.338;9.196;2023-05-24T05:12:30;11.70;73.60
41220;DHT22;26951;47.338;9.196;2023-05-24T05:15:14;11.70;73.60
41220;DHT22;26951;47.338;9.196;2023-05-24T05:17:58;11.70;73.30
41220;DHT22;26951;47.338;9.196;2023-05-24T05:20:43;11.70;72.50
41220;DHT22;26951;47.338;9.196;2023-05-24T05:23:27;11.70;72.10
41220;DHT22;26951;47.338;9.196;2023-05-24T05:26:11;11.60;72.80
41220;DHT22;26951;47.338;9.196;2023-05-24T05:28:58;11.60;72.90
41220;DHT22;26951;47.338;9.196;2023-05-24T05:31:42;11.60;72.80
41220;DHT22;26951;47.338;9.196;2023-05-24T05:34:26;11.60;73.20
41220;DHT22;26951;47.338;9.196;2023-05-24T05:37:10;11.60;72.50
41220;DHT22;26951;47.338;9.196;2023-05-24T05:39:54;11.50;73.20
41220;DHT22;26951;47.338;9.196;2023-05-24T05:42:38;11.60;73.90
41220;DHT22;26951;47.338;9.196;2023-05-24T05:45:23;11.60;74.30
41220;DHT22;26951;47.338;9.196;2023-05-24T05:48:07;11.50;74.70
41220;DHT22;26951;47.338;9.196;2023-05-24T05:50:51;11.60;74.00
41220;DHT22;26951;47.338;9.196;2023-05-24T05:53:35;11.60;73.60
41220;DHT22;26951;47.338;9.196;2023-05-24T05:56:19;11.50;74.90
41220;DHT22;26951;47.338;9.196;2023-05-24T05:59:03;11.50;74.20
41220;DHT22;26951;47.338;9.196;2023-05-24T06:01:48;11.50;74.90
41220;DHT22;26951;47.338;9.196;2023-05-24T06:04:32;11.50;74.90
41220;DHT22;26951;47.338;9.196;2023-05-24T06:07:16;11.50;74.70
41220;DHT22;26951;47.338;9.196;2023-05-24T06:10:01;11.60;75.00
41220;DHT22;26951;47.338;9.196;2023-05-24T06:12:45;11.60;74.70
41220;DHT22;26951;47.338;9.196;2023-05-24T06:15:29;11.60;75.90
41220;DHT22;26951;47.338;9.196;2023-05-24T06:18:13;11.70;76.20
41220;DHT22;26951;47.338;9.196;2023-05-24T06:20:58;11.70;76.30
41220;DHT22;26951;47.338;9.196;2023-05-24T06:23:42;11.70;76.40
41220;DHT22;26951;47.338;9.196;2023-05-24T06:26:27;11.70;76.30
41220;DHT22;26951;47.338;9.196;2023-05-24T06:29:11;11.70;76.30
41220;DHT22;26951;47.338;9.196;2023-05-24T06:31:55;11.70;75.80
41220;DHT22;26951;47.338;9.196;2023-05-24T06:34:39;11.70;75.60
41220;DHT22;26951;47.338;9.196;2023-05-24T06:37:25;11.80;75.40
41220;DHT22;26951;47.338;9.196;2023-05-24T06:40:09;11.70;75.40
41220;DHT22;26951;47.338;9.196;2023-05-24T06:42:54;11.80;75.90
41220;DHT22;26951;47.338;9.196;2023-05-24T06:45:38;11.80;76.40
41220;DHT22;26951;47.338;9.196;2023-05-24T06:48:23;11.70;76.10
41220;DHT22;26951;47.338;9.196;2023-05-24T06:51:07;11.70;75.70
41220;DHT22;26951;47.338;9.196;2023-05-24T06:53:51;11.70;76.40
41220;DHT22;26951;47.338;9.196;2023-05-24T06:56:36;11.70;75.70
41220;DHT22;26951;47.338;9.196;2023-05-24T06:59:21;11.80;74.10
41220;DHT22;26951;47.338;9.196;2023-05-24T07:02:05;11.70;74.70
41220;DHT22;26951;47.338;9.196;2023-05-24T07:04:49;11.70;74.30
41220;DHT22;26951;47.338;9.196;2023-05-24T07:07:34;11.60;74.60
41220;DHT22;26951;47.338;9.196;2023-05-24T07:10:18;11.70;75.00
41220;DHT22;26951;47.338;9.196;2023-05-24T07:13:03;11.70;75.20
41220;DHT22;26951;47.338;9.196;2023-05-24T07:15:47;11.60;74.80
41220;DHT22;26951;47.338;9.196;2023-05-24T07:18:31;11.70;74.80
41220;DHT22;26951;47.338;9.196;2023-05-24T07:21:15;11.60;74.80
41220;DHT22;26951;47.338;9.196;2023-05-24T07:23:59;11.60;75.00
41220;DHT22;26951;47.338;9.196;2023-05-24T07:26:44;11.60;75.70
41220;DHT22;26951;47.338;9.196;2023-05-24T07:29:28;11.70;76.30
41220;DHT22;26951;47.338;9.196;2023-05-24T07:32:12;11.70;76.00
41220;DHT22;26951;47.338;9.196;2023-05-24T07:34:56;11.70;76.10
41220;DHT22;26951;47.338;9.196;2023-05-24T07:37:40;11.80;76.40
41220;DHT22;26951;47.338;9.196;2023-05-24T07:40:25;11.80;76.00
41220;DHT22;26951;47.338;9.196;2023-05-24T07:43:09;11.90;76.10
41220;DHT22;26951;47.338;9.196;2023-05-24T07:45:54;11.90;76.00
41220;DHT22;26951;47.338;9.196;2023-05-24T07:48:38;11.90;76.00
41220;DHT22;26951;47.338;9.196;2023-05-24T07:51:22;12.00;75.90
41220;DHT22;26951;47.338;9.196;2023-05-24T07:54:06;12.00;76.10
41220;DHT22;26951;47.338;9.196;2023-05-24T07:56:51;12.00;75.80
41220;DHT22;26951;47.338;9.196;2023-05-24T07:59:35;12.10;75.90
41220;DHT22;26951;47.338;9.196;2023-05-24T08:02:18;12.10;75.90
41220;DHT22;26951;47.338;9.196;2023-05-24T08:05:03;12.10;75.70
41220;DHT22;26951;47.338;9.196;2023-05-24T08:07:48;12.10;75.40
41220;DHT22;26951;47.338;9.196;2023-05-24T08:10:32;12.10;75.40
41220;DHT22;26951;47.338;9.196;2023-05-24T08:13:16;12.10;75.50
41220;DHT22;26951;47.338;9.196;2023-05-24T08:16:00;12.10;75.70
41220;DHT22;26951;47.338;9.196;2023-05-24T08:18:44;12.10;75.70
41220;DHT22;26951;47.338;9.196;2023-05-24T08:21:29;12.10;75.90
41220;DHT22;26951;47.338;9.196;2023-05-24T08:24:13;12.10;76.30
41220;DHT22;26951;47.338;9.196;2023-05-24T08:26:57;12.10;76.20
41220;DHT22;26951;47.338;9.196;2023-05-24T08:29:42;12.10;75.10
41220;DHT22;26951;47.338;9.196;2023-05-24T08:32:26;12.10;75.30
41220;DHT22;26951;47.338;9.196;2023-05-24T08:35:10;12.10;75.60
41220;DHT22;26951;47.338;9.196;2023-05-24T08:37:54;12.10;77.10
41220;DHT22;26951;47.338;9.196;2023-05-24T08:40:39;12.10;77.30
41220;DHT22;26951;47.338;9.196;2023-05-24T08:43:23;12.10;77.50
41220;DHT22;26951;47.338;9.196;2023-05-24T08:46:09;12.10;76.70
41220;DHT22;26951;47.338;9.196;2023-05-24T08:48:54;12.20;77.50
41220;DHT22;26951;47.338;9.196;2023-05-24T08:51:40;12.20;77.90
41220;DHT22;26951;47.338;9.196;2023-05-24T08:54:26;12.20;77.50
41220;DHT22;26951;47.338;9.196;2023-05-24T08:57:10;12.20;75.50
41220;DHT22;26951;47.338;9.196;2023-05-24T08:59:57;12.20;75.90
41220;DHT22;26951;47.338;9.196;2023-05-24T09:02:44;12.20;76.00
41220;DHT22;26951;47.338;9.196;2023-05-24T09:05:29;12.20;76.00
41220;DHT22;26951;47.338;9.196;2023-05-24T09:08:13;12.20;76.30
41220;DHT22;26951;47.338;9.196;2023-05-24T09:11:02;12.20;76.90
41220;DHT22;26951;47.338;9.196;2023-05-24T09:13:47;12.20;77.10
41220;DHT22;26951;47.338;9.196;2023-05-24T09:16:32;12.30;76.90
41220;DHT22;26951;47.338;9.196;2023-05-24T09:19:16;12.30;76.90
41220;DHT22;26951;47.338;9.196;2023-05-24T09:22:02;12.30;76.50
41220;DHT22;26951;47.338;9.196;2023-05-24T09:24:47;12.30;75.80
41220;DHT22;26951;47.338;9.196;2023-05-24T09:27:32;12.30;75.40
41220;DHT22;26951;47.338;9.196;2023-05-24T09:30:18;12.30;74.50
41220;DHT22;26951;47.338;9.196;2023-05-24T09:33:03;12.20;74.30
41220;DHT22;26951;47.338;9.196;2023-05-24T09:35:56;12.20;74.90
41220;DHT22;26951;47.338;9.196;2023-05-24T09:38:41;12.20;75.40
41220;DHT22;26951;47.338;9.196;2023-05-24T09:41:26;12.10;74.70
41220;DHT22;26951;47.338;9.196;2023-05-24T09:44:12;12.10;73.80
41220;DHT22;26951;47.338;9.196;2023-05-24T09:47:01;12.10;73.90
41220;DHT22;26951;47.338;9.196;2023-05-24T09:49:51;12.10;73.30
41220;DHT22;26951;47.338;9.196;2023-05-24T09:52:35;12.00;73.00
41220;DHT22;26951;47.338;9.196;2023-05-24T09:55:20;11.90;72.40
41220;DHT22;26951;47.338;9.196;2023-05-24T09:58:06;11.90;72.60
41220;DHT22;26951;47.338;9.196;2023-05-24T10:01:03;11.80;72.50
41220;DHT22;26951;47.338;9.196;2023-05-24T10:03:52;11.80;72.90
41220;DHT22;26951;47.338;9.196;2023-05-24T10:06:38;11.70;73.40
41220;DHT22;26951;47.338;9.196;2023-05-24T10:09:25;11.70;73.40
41220;DHT22;26951;47.338;9.196;2023-05-24T10:12:16;11.60;73.30
41220;DHT22;26951;47.338;9.196;2023-05-24T10:15:02;11.60;73.60
41220;DHT22;26951;47.338;9.196;2023-05-24T10:17:47;11.60;73.80
41220;DHT22;26951;47.338;9.196;2023-05-24T10:20:31;11.60;73.00
41220;DHT22;26951;47.338;9.196;2023-05-24T10:23:19;11.60;74.50
41220;DHT22;26951;47.338;9.196;2023-05-24T10:26:09;11.60;75.00
41220;DHT22;26951;47.338;9.196;2023-05-24T10:29:00;11.60;74.50
41220;DHT22;26951;47.338;9.196;2023-05-24T10:31:48;11.60;73.90
41220;DHT22;26951;47.338;9.196;2023-05-24T10:34:33;11.60;73.80
41220;DHT22;26951;47.338;9.196;2023-05-24T10:37:18;11.60;73.90
41220;DHT22;26951;47.338;9.196;2023-05-24T10:40:04;11.60;73.50
41220;DHT22;26951;47.338;9.196;2023-05-24T10:42:50;11.50;72.80
41220;DHT22;26951;47.338;9.196;2023-05-24T10:45:40;11.50;72.70
41220;DHT22;26951;47.338;9.196;2023-05-24T10:51:34;11.60;73.40
41220;DHT22;26951;47.338;9.196;2023-05-24T10:54:23;11.60;73.50
41220;DHT22;26951;47.338;9.196;2023-05-24T10:57:09;11.60;74.00
41220;DHT22;26951;47.338;9.196;2023-05-24T10:59:55;11.60;72.70
41220;DHT22;26951;47.338;9.196;2023-05-24T11:02:40;11.50;73.40
41220;DHT22;26951;47.338;9.196;2023-05-24T11:05:24;11.40;71.60
41220;DHT22;26951;47.338;9.196;2023-05-24T11:08:08;11.40;72.10
41220;DHT22;26951;47.338;9.196;2023-05-24T11:11:05;11.40;72.40
41220;DHT22;26951;47.338;9.196;2023-05-24T11:13:55;11.30;72.60
41220;DHT22;26951;47.338;9.196;2023-05-24T11:16:40;11.30;72.50
41220;DHT22;26951;47.338;9.196;2023-05-24T11:19:44;11.30;73.20
41220;DHT22;26951;47.338;9.196;2023-05-24T11:22:28;11.30;73.60
41220;DHT22;26951;47.338;9.196;2023-05-24T11:25:13;11.40;73.50
41220;DHT22;26951;47.338;9.196;2023-05-24T11:27:57;11.40;72.80
41220;DHT22;26951;47.338;9.196;2023-05-24T11:30:45;11.30;72.90
41220;DHT22;26951;47.338;9.196;2023-05-24T11:33:29;11.30;73.50
41220;DHT22;26951;47.338;9.196;2023-05-24T11:36:15;11.30;72.90
41220;DHT22;26951;47.338;9.196;2023-05-24T11:38:59;11.30;73.30
41220;DHT22;26951;47.338;9.196;2023-05-24T11:41:44;11.30;72.40
41220;DHT22;26951;47.338;9.196;2023-05-24T11:44:31;11.30;72.70
41220;DHT22;26951;47.338;9.196;2023-05-24T11:47:15;11.30;72.60
41220;DHT22;26951;47.338;9.196;2023-05-24T11:49:59;11.20;72.10
41220;DHT22;26951;47.338;9.196;2023-05-24T11:52:43;11.20;72.20
41220;DHT22;26951;47.338;9.196;2023-05-24T11:55:27;11.20;72.40
41220;DHT22;26951;47.338;9.196;2023-05-24T11:58:24;11.20;72.40
41220;DHT22;26951;47.338;9.196;2023-05-24T12:01:26;11.20;72.40
41220;DHT22;26951;47.338;9.196;2023-05-24T12:04:11;11.20;72.80
41220;DHT22;26951;47.338;9.196;2023-05-24T12:06:55;11.20;73.30
41220;DHT22;26951;47.338;9.196;2023-05-24T12:09:40;11.30;74.10
41220;DHT22;26951;47.338;9.196;2023-05-24T12:12:24;11.30;74.20
41220;DHT22;26951;47.338;9.196;2023-05-24T12:15:08;11.30;74.10
41220;DHT22;26951;47.338;9.196;2023-05-24T12:17:53;11.30;73.70
41220;DHT22;26951;47.338;9.196;2023-05-24T12:20:37;11.30;73.40
41220;DHT22;26951;47.338;9.196;2023-05-24T12:23:26;11.30;73.30
41220;DHT22;26951;47.338;9.196;2023-05-24T12:26:12;11.30;73.90
41220;DHT22;26951;47.338;9.196;2023-05-24T12:28:58;11.40;73.30
41220;DHT22;26951;47.338;9.196;2023-05-24T12:31:46;11.40;72.90
41220;DHT22;26951;47.338;9.196;2023-05-24T12:34:31;11.30;73.00
41220;DHT22;26951;47.338;9.196;2023-05-24T12:37:16;11.40;73.60
41220;DHT22;26951;47.338;9.196;2023-05-24T12:40:01;11.40;74.00
41220;DHT22;26951;47.338;9.196;2023-05-24T12:42:55;11.50;74.90
41220;DHT22;26951;47.338;9.196;2023-05-24T12:45:40;11.60;74.70
41220;DHT22;26951;47.338;9.196;2023-05-24T12:48:24;11.60;74.60
41220;DHT22;26951;47.338;9.196;2023-05-24T12:51:08;11.70;74.70
41220;DHT22;26951;47.338;9.196;2023-05-24T12:53:53;11.70;74.50
41220;DHT22;26951;47.338;9.196;2023-05-24T12:56:37;11.80;72.90
41220;DHT22;26951;47.338;9.196;2023-05-24T12:59:21;11.80;73.10
41220;DHT22;26951;47.338;9.196;2023-05-24T13:02:05;11.80;74.10
41220;DHT22;26951;47.338;9.196;2023-05-24T13:04:50;11.80;74.40
41220;DHT22;26951;47.338;9.196;2023-05-24T13:07:35;11.90;75.50
41220;DHT22;26951;47.338;9.196;2023-05-24T13:10:19;12.00;75.80
41220;DHT22;26951;47.338;9.196;2023-05-24T13:13:04;12.10;75.70
41220;DHT22;26951;47.338;9.196;2023-05-24T13:15:51;12.20;75.50
41220;DHT22;26951;47.338;9.196;2023-05-24T13:18:35;12.30;74.20
41220;DHT22;26951;47.338;9.196;2023-05-24T13:21:20;12.30;72.20
41220;DHT22;26951;47.338;9.196;2023-05-24T13:24:05;12.30;72.10
41220;DHT22;26951;47.338;9.196;2023-05-24T13:26:49;12.30;72.30
41220;DHT22;26951;47.338;9.196;2023-05-24T13:29:33;12.30;72.20
41220;DHT22;26951;47.338;9.196;2023-05-24T13:32:18;12.40;71.70
41220;DHT22;26951;47.338;9.196;2023-05-24T13:35:02;12.40;71.00
41220;DHT22;26951;47.338;9.196;2023-05-24T13:37:47;12.40;71.40
41220;DHT22;26951;47.338;9.196;2023-05-24T13:40:31;12.40;70.70
41220;DHT22;26951;47.338;9.196;2023-05-24T13:43:16;12.40;71.30
41220;DHT22;26951;47.338;9.196;2023-05-24T13:46:00;12.50;71.50
41220;DHT22;26951;47.338;9.196;2023-05-24T13:48:44;12.50;70.60
41220;DHT22;26951;47.338;9.196;2023-05-24T13:51:28;12.50;71.40
41220;DHT22;26951;47.338;9.196;2023-05-24T13:54:13;12.50;72.20
41220;DHT22;26951;47.338;9.196;2023-05-24T13:56:58;12.60;72.00
41220;DHT22;26951;47.338;9.196;2023-05-24T13:59:42;12.60;71.80
41220;DHT22;26951;47.338;9.196;2023-05-24T14:02:26;12.60;71.00
41220;DHT22;26951;47.338;9.196;2023-05-24T14:05:10;12.70;71.70
41220;DHT22;26951;47.338;9.196;2023-05-24T14:07:55;12.70;70.80
41220;DHT22;26951;47.338;9.196;2023-05-24T14:10:40;12.80;71.60
41220;DHT22;26951;47.338;9.196;2023-05-24T14:13:24;12.80;70.00
41220;DHT22;26951;47.338;9.196;2023-05-24T14:16:08;12.80;69.90
41220;DHT22;26951;47.338;9.196;2023-05-24T14:18:52;12.80;70.30
41220;DHT22;26951;47.338;9.196;2023-05-24T14:21:36;12.90;68.80
41220;DHT22;26951;47.338;9.196;2023-05-24T14:24:21;12.90;69.80
41220;DHT22;26951;47.338;9.196;2023-05-24T14:27:06;12.80;69.80
41220;DHT22;26951;47.338;9.196;2023-05-24T14:29:51;12.90;69.40
41220;DHT22;26951;47.338;9.196;2023-05-24T14:32:35;12.90;69.40
41220;DHT22;26951;47.338;9.196;2023-05-24T14:35:19;13.00;69.40
41220;DHT22;26951;47.338;9.196;2023-05-24T14:38:08;13.00;69.60
41220;DHT22;26951;47.338;9.196;2023-05-24T14:40:52;13.10;69.00
41220;DHT22;26951;47.338;9.196;2023-05-24T14:43:39;13.10;68.00
41220;DHT22;26951;47.338;9.196;2023-05-24T14:46:25;13.00;67.80
41220;DHT22;26951;47.338;9.196;2023-05-24T14:49:09;13.00;68.70
41220;DHT22;26951;47.338;9.196;2023-05-24T14:51:53;13.00;68.10
41220;DHT22;26951;47.338;9.196;2023-05-24T14:54:37;13.10;68.20
41220;DHT22;26951;47.338;9.196;2023-05-24T14:57:21;13.00;68.10
41220;DHT22;26951;47.338;9.196;2023-05-24T15:00:06;13.00;67.50
41220;DHT22;26951;47.338;9.196;2023-05-24T15:02:50;13.10;66.20
41220;DHT22;26951;47.338;9.196;2023-05-24T15:05:34;13.10;66.50
41220;DHT22;26951;47.338;9.196;2023-05-24T15:08:19;13.10;66.00
41220;DHT22;26951;47.338;9.196;2023-05-24T15:11:03;13.10;65.60
41220;DHT22;26951;47.338;9.196;2023-05-24T15:13:48;13.20;66.20
41220;DHT22;26951;47.338;9.196;2023-05-24T15:16:38;13.20;67.10
41220;DHT22;26951;47.338;9.196;2023-05-24T15:19:23;13.30;68.40
41220;DHT22;26951;47.338;9.196;2023-05-24T15:22:08;13.30;67.50
41220;DHT22;26951;47.338;9.196;2023-05-24T15:24:52;13.30;66.70
41220;DHT22;26951;47.338;9.196;2023-05-24T15:27:36;13.30;65.60
41220;DHT22;26951;47.338;9.196;2023-05-24T15:30:21;13.30;67.40
41220;DHT22;26951;47.338;9.196;2023-05-24T15:33:06;13.40;65.60
41220;DHT22;26951;47.338;9.196;2023-05-24T15:35:50;13.40;65.30
41220;DHT22;26951;47.338;9.196;2023-05-24T15:38:35;13.40;65.50
41220;DHT22;26951;47.338;9.196;2023-05-24T15:41:21;13.40;64.30
41220;DHT22;26951;47.338;9.196;2023-05-24T15:44:05;13.30;64.60
41220;DHT22;26951;47.338;9.196;2023-05-24T15:46:52;13.30;64.20
41220;DHT22;26951;47.338;9.196;2023-05-24T15:49:36;13.30;64.70
41220;DHT22;26951;47.338;9.196;2023-05-24T15:52:22;13.30;65.10
41220;DHT22;26951;47.338;9.196;2023-05-24T15:55:07;13.30;65.80
41220;DHT22;26951;47.338;9.196;2023-05-24T15:57:51;13.30;65.50
41220;DHT22;26951;47.338;9.196;2023-05-24T16:00:35;13.30;65.20
41220;DHT22;26951;47.338;9.196;2023-05-24T16:03:19;13.30;64.90
41220;DHT22;26951;47.338;9.196;2023-05-24T16:06:05;13.30;65.10
41220;DHT22;26951;47.338;9.196;2023-05-24T16:08:49;13.30;64.50
41220;DHT22;26951;47.338;9.196;2023-05-24T16:11:33;13.30;65.20
41220;DHT22;26951;47.338;9.196;2023-05-24T16:14:18;13.30;65.80
41220;DHT22;26951;47.338;9.196;2023-05-24T16:17:02;13.30;64.80
41220;DHT22;26951;47.338;9.196;2023-05-24T16:19:47;13.30;65.60
41220;DHT22;26951;47.338;9.196;2023-05-24T16:22:32;13.30;63.20
41220;DHT22;26951;47.338;9.196;2023-05-24T16:25:17;13.20;63.50
41220;DHT22;26951;47.338;9.196;2023-05-24T16:28:02;13.20;63.50
41220;DHT22;26951;47.338;9.196;2023-05-24T16:30:46;13.20;63.60
41220;DHT22;26951;47.338;9.196;2023-05-24T16:33:30;13.20;63.60
41220;DHT22;26951;47.338;9.196;2023-05-24T16:36:14;13.10;63.00
41220;DHT22;26951;47.338;9.196;2023-05-24T16:38:59;13.10;62.90
41220;DHT22;26951;47.338;9.196;2023-05-24T16:41:44;13.00;63.00
41220;DHT22;26951;47.338;9.196;2023-05-24T16:44:28;13.00;62.90
41220;DHT22;26951;47.338;9.196;2023-05-24T16:47:12;13.00;63.20
41220;DHT22;26951;47.338;9.196;2023-05-24T16:49:56;12.90;62.90
41220;DHT22;26951;47.338;9.196;2023-05-24T16:52:41;12.80;63.60
41220;DHT22;26951;47.338;9.196;2023-05-24T16:55:26;12.80;62.90
41220;DHT22;26951;47.338;9.196;2023-05-24T16:58:11;12.70;63.40
41220;DHT22;26951;47.338;9.196;2023-05-24T17:00:55;12.70;62.90
41220;DHT22;26951;47.338;9.196;2023-05-24T17:03:40;12.60;62.80
41220;DHT22;26951;47.338;9.196;2023-05-24T17:06:24;12.50;62.50
41220;DHT22;26951;47.338;9.196;2023-05-24T17:09:08;12.50;62.70
41220;DHT22;26951;47.338;9.196;2023-05-24T17:11:52;12.40;62.40
41220;DHT22;26951;47.338;9.196;2023-05-24T17:14:36;12.30;62.90
41220;DHT22;26951;47.338;9.196;2023-05-24T17:17:21;12.30;63.00
41220;DHT22;26951;47.338;9.196;2023-05-24T17:20:06;12.20;63.40
41220;DHT22;26951;47.338;9.196;2023-05-24T17:22:50;12.20;64.00
41220;DHT22;26951;47.338;9.196;2023-05-24T17:25:34;12.10;63.60
41220;DHT22;26951;47.338;9.196;2023-05-24T17:28:18;12.00;63.40
41220;DHT22;26951;47.338;9.196;2023-05-24T17:31:03;11.90;64.20
41220;DHT22;26951;47.338;9.196;2023-05-24T17:33:47;11.80;63.50
41220;DHT22;26951;47.338;9.196;2023-05-24T17:36:31;11.80;63.30